createdAt,value
2019-06-07T00:01:46.236Z,62.22
2019-06-07T00:03:48.247Z,61.21
2019-06-07T00:05:50.255Z,62.28
2019-06-07T00:07:52.276Z,62.78
2019-06-07T00:09:54.354Z,61.55
2019-06-07T00:11:56.357Z,62.04
2019-06-07T00:14:01.173Z,61.96
2019-06-07T00:16:03.206Z,62.42
2019-06-07T00:18:05.455Z,62.55
2019-06-07T00:20:09.334Z,63.38
2019-06-07T00:22:18.505Z,63.16
2019-06-07T00:24:16.880Z,63.54
2019-06-07T00:26:21.291Z,63.57
2019-06-07T00:28:24.068Z,65.03
2019-06-07T00:30:48.840Z,65.75
2019-06-07T00:32:30.087Z,65.96
2019-06-07T00:34:32.188Z,64.82
2019-06-07T00:36:34.197Z,64.99
2019-06-07T00:38:36.318Z,65.27
2019-06-07T00:40:38.524Z,66.52
2019-06-07T00:42:40.512Z,65.48
2019-06-07T00:44:42.554Z,65.40
2019-06-07T00:46:44.619Z,65.45
2019-06-07T00:48:46.587Z,65.59
2019-06-07T00:50:48.631Z,65.61
2019-06-07T00:54:54.634Z,66.12
2019-06-07T00:56:56.636Z,66.19
2019-06-07T00:59:10.856Z,66.46
2019-06-07T01:01:02.877Z,66.83
2019-06-07T01:03:04.845Z,67.26
2019-06-07T01:05:07.363Z,67.00
2019-06-07T01:07:09.009Z,67.44
2019-06-07T01:09:12.897Z,67.67
2019-06-07T01:11:15.931Z,67.96
2019-06-07T01:13:19.458Z,67.96
2019-06-07T01:15:28.537Z,68.89
2019-06-07T01:17:49.709Z,68.81
2019-06-07T01:19:34.528Z,68.93
2019-06-07T01:21:36.117Z,69.67
2019-06-07T01:25:42.132Z,70.73
2019-06-07T01:27:44.340Z,70.79
2019-06-07T01:29:46.661Z,70.45
2019-06-07T01:31:48.989Z,70.99
2019-06-07T01:33:51.524Z,71.46
2019-06-07T01:35:53.641Z,72.11
2019-06-07T01:37:55.883Z,71.71
2019-06-07T01:39:57.931Z,72.11
2019-06-07T01:42:00.122Z,71.93
2019-06-07T01:44:02.142Z,71.88
2019-06-07T01:46:04.180Z,72.25
2019-06-07T01:48:06.392Z,73.27
2019-06-07T01:50:08.751Z,73.83
2019-06-07T01:52:10.782Z,74.41
2019-06-07T01:54:49.327Z,74.05
2019-06-07T01:56:18.582Z,74.00
2019-06-07T01:58:22.257Z,74.03
2019-06-07T02:00:26.605Z,74.71
2019-06-07T02:02:31.626Z,74.07
2019-06-07T02:04:33.710Z,74.55
2019-06-07T02:06:37.344Z,74.61
2019-06-07T02:08:39.306Z,74.88
2019-06-07T02:10:41.327Z,75.01
2019-06-07T02:12:43.786Z,75.30
2019-06-07T02:14:45.443Z,75.71
2019-06-07T02:16:47.386Z,76.12
2019-06-07T02:19:01.525Z,75.59
2019-06-07T02:20:53.486Z,76.42
2019-06-07T02:22:55.469Z,76.66
2019-06-07T02:25:34.543Z,76.82
2019-06-07T02:27:01.410Z,76.55
2019-06-07T02:29:03.803Z,76.07
2019-06-07T02:31:05.805Z,76.41
2019-06-07T02:33:07.797Z,76.49
2019-06-07T02:35:10.044Z,76.16
2019-06-07T02:37:12.020Z,76.17
2019-06-07T02:39:14.022Z,76.49
2019-06-07T02:41:16.052Z,76.70
2019-06-07T02:43:18.061Z,76.81
2019-06-07T02:45:20.268Z,76.81
2019-06-07T02:47:22.803Z,76.87
2019-06-07T02:49:28.407Z,76.99
2019-06-07T02:51:40.021Z,77.24
2019-06-07T02:53:39.511Z,76.83
2019-06-07T02:56:26.531Z,77.43
2019-06-07T02:57:42.334Z,76.98
2019-06-07T03:00:06.849Z,77.29
2019-06-07T03:01:49.909Z,77.68
2019-06-07T03:03:52.160Z,77.57
2019-06-07T03:05:55.478Z,77.57
2019-06-07T03:07:57.796Z,77.59
2019-06-07T03:10:00.182Z,77.57
2019-06-07T03:12:03.094Z,77.36
2019-06-07T03:14:05.426Z,77.55
2019-06-07T03:16:09.392Z,78.08
2019-06-07T03:18:41.238Z,77.60
2019-06-07T03:20:43.800Z,78.01
2019-06-07T03:22:47.763Z,78.40
2019-06-07T03:24:49.941Z,79.04
2019-06-07T03:28:56.691Z,78.17
2019-06-07T03:31:02.804Z,78.76
2019-06-07T03:33:02.993Z,79.03
2019-06-07T03:35:05.626Z,78.32
2019-06-07T03:37:07.669Z,78.01
2019-06-07T03:39:09.642Z,78.35
2019-06-07T03:41:11.688Z,77.87
2019-06-07T03:43:13.859Z,77.72
2019-06-07T03:45:15.848Z,77.50
2019-06-07T03:47:17.861Z,77.43
2019-06-07T03:49:20.090Z,77.46
2019-06-07T03:51:25.360Z,77.07
2019-06-07T03:53:29.231Z,76.82
2019-06-07T03:55:31.224Z,76.79
2019-06-07T03:58:24.848Z,76.72
2019-06-07T03:59:41.329Z,76.67
2019-06-07T04:01:42.839Z,76.68
2019-06-07T04:03:51.419Z,76.43
2019-06-07T04:05:50.364Z,76.45
2019-06-07T04:07:52.524Z,76.23
2019-06-07T04:09:55.026Z,76.93
2019-06-07T04:11:57.000Z,76.56
2019-06-07T04:13:59.069Z,76.21
2019-06-07T04:16:01.059Z,76.11
2019-06-07T04:18:04.151Z,75.82
2019-06-07T04:20:06.436Z,76.17
2019-06-07T04:22:08.528Z,75.73
2019-06-07T04:24:10.826Z,75.66
2019-06-07T04:26:12.796Z,75.73
2019-06-07T04:28:14.865Z,75.50
2019-06-07T04:30:37.282Z,75.53
2019-06-07T04:32:44.667Z,75.16
2019-06-07T04:34:44.390Z,75.21
2019-06-07T04:36:58.752Z,75.46
2019-06-07T04:38:51.591Z,74.38
2019-06-07T04:40:53.647Z,74.29
2019-06-07T04:42:56.031Z,73.96
2019-06-07T04:44:58.630Z,73.72
2019-06-07T04:47:01.094Z,74.05
2019-06-07T04:49:03.815Z,74.42
2019-06-07T04:51:07.578Z,73.71
2019-06-07T04:53:09.604Z,74.11
2019-06-07T04:55:11.667Z,73.84
2019-06-07T04:57:13.664Z,73.52
2019-06-07T05:00:00.249Z,73.59
2019-06-07T05:01:27.195Z,73.02
2019-06-07T05:03:23.536Z,72.73
2019-06-07T05:05:25.649Z,73.44
2019-06-07T05:07:27.663Z,73.29
2019-06-07T05:09:30.124Z,73.24
2019-06-07T05:11:33.923Z,73.30
2019-06-07T05:13:39.042Z,73.68
2019-06-07T05:15:42.212Z,73.96
2019-06-07T05:17:45.187Z,74.47
2019-06-07T05:19:47.279Z,74.19
2019-06-07T05:22:03.564Z,74.42
2019-06-07T05:24:06.662Z,74.50
2019-06-07T05:25:57.639Z,74.74
2019-06-07T05:27:59.636Z,74.85
2019-06-07T05:30:24.281Z,75.05
2019-06-07T05:32:05.685Z,74.83
2019-06-07T05:34:07.910Z,74.49
2019-06-07T05:36:09.960Z,74.31
2019-06-07T05:38:12.026Z,73.99
2019-06-07T05:40:18.816Z,74.26
2019-06-07T05:42:20.866Z,74.22
2019-06-07T05:44:22.850Z,73.90
2019-06-07T05:46:25.110Z,73.60
2019-06-07T05:48:27.204Z,73.47
2019-06-07T05:52:44.348Z,73.76
2019-06-07T05:54:46.817Z,73.59
2019-06-07T05:56:48.049Z,72.13
2019-06-07T05:58:50.085Z,71.40
2019-06-07T06:00:52.177Z,71.04
2019-06-07T06:03:04.633Z,69.57
2019-06-07T06:04:58.092Z,67.51
2019-06-07T06:07:00.106Z,67.29
2019-06-07T06:09:13.250Z,67.21
2019-06-07T06:11:07.256Z,66.52
2019-06-07T06:13:09.295Z,66.39
2019-06-07T06:15:11.594Z,66.32
2019-06-07T06:17:13.644Z,66.83
2019-06-07T06:19:15.649Z,65.93
2019-06-07T06:21:20.206Z,65.46
2019-06-07T06:23:21.697Z,64.55
2019-06-07T06:25:33.645Z,64.58
2019-06-07T06:28:03.448Z,63.95
2019-06-07T06:29:31.882Z,63.43
2019-06-07T06:31:33.960Z,63.53
2019-06-07T06:33:37.347Z,64.30
2019-06-07T06:35:39.890Z,64.11
2019-06-07T06:37:44.270Z,63.23
2019-06-07T06:39:48.209Z,63.15
2019-06-07T06:41:58.790Z,62.11
2019-06-07T06:43:54.642Z,62.31
2019-06-07T06:45:56.685Z,60.95
2019-06-07T06:47:58.697Z,61.54
2019-06-07T06:50:02.057Z,61.35
2019-06-07T06:52:04.332Z,60.81
2019-06-07T06:54:06.322Z,61.84
2019-06-07T06:56:08.302Z,61.29
2019-06-07T06:58:10.429Z,60.84
2019-06-07T07:00:13.299Z,60.94
2019-06-07T07:02:15.300Z,61.97
2019-06-07T07:04:17.515Z,61.42
2019-06-07T07:06:26.290Z,61.42
2019-06-07T07:08:27.005Z,62.40
2019-06-07T07:10:38.764Z,62.10
2019-06-07T07:12:40.762Z,62.06
2019-06-07T07:14:45.532Z,62.06
2019-06-07T07:16:50.046Z,61.84
2019-06-07T07:18:52.900Z,62.59
2019-06-07T07:20:57.412Z,62.78
2019-06-07T07:22:59.646Z,62.82
2019-06-07T07:25:01.621Z,62.47
2019-06-07T07:27:04.965Z,61.95
2019-06-07T07:29:07.212Z,61.84
2019-06-07T07:31:09.221Z,61.39
2019-06-07T07:33:11.216Z,60.48
2019-06-07T07:35:13.432Z,60.59
2019-06-07T07:37:15.661Z,60.99
2019-06-07T07:39:17.662Z,61.02
2019-06-07T07:41:19.747Z,59.96
2019-06-07T07:43:22.296Z,60.30
2019-06-07T07:45:24.395Z,60.75
2019-06-07T07:47:26.434Z,60.77
2019-06-07T07:49:28.448Z,61.04
2019-06-07T07:51:32.173Z,60.56
2019-06-07T07:53:48.499Z,61.13
2019-06-07T07:55:39.263Z,60.47
2019-06-07T07:57:41.282Z,59.86
2019-06-07T08:00:00.539Z,59.63
2019-06-07T08:01:48.659Z,59.74
2019-06-07T08:03:54.920Z,58.75
2019-06-07T08:05:58.919Z,58.21
2019-06-07T08:08:01.529Z,58.70
2019-06-07T08:10:04.555Z,58.47
2019-06-07T08:12:06.676Z,58.80
2019-06-07T08:14:09.293Z,58.93
2019-06-07T08:16:15.681Z,58.31
2019-06-07T08:18:17.471Z,57.92
2019-06-07T08:20:19.284Z,56.93
2019-06-07T08:22:22.401Z,56.14
2019-06-07T08:24:24.606Z,55.72
2019-06-07T08:26:26.590Z,55.06
2019-06-07T08:28:28.587Z,54.41
2019-06-07T08:32:34.686Z,55.10
2019-06-07T08:34:37.897Z,55.47
2019-06-07T08:36:42.522Z,55.57
2019-06-07T08:38:48.347Z,56.00
2019-06-07T08:40:58.471Z,54.70
2019-06-07T08:43:10.282Z,54.66
2019-06-07T08:45:03.593Z,55.05
2019-06-07T08:47:19.296Z,53.75
2019-06-07T08:49:05.796Z,53.67
2019-06-07T08:51:08.737Z,53.19
2019-06-07T08:53:12.814Z,54.26
2019-06-07T08:55:15.071Z,54.19
2019-06-07T08:57:21.768Z,54.64
2019-06-07T08:59:21.059Z,53.69
2019-06-07T09:01:24.236Z,54.04
2019-06-07T09:03:26.268Z,54.00
2019-06-07T09:05:29.205Z,53.37
2019-06-07T09:07:31.312Z,53.84
2019-06-07T09:09:33.354Z,54.20
2019-06-07T09:11:35.434Z,53.41
2019-06-07T09:13:37.536Z,53.56
2019-06-07T09:15:39.587Z,52.90
2019-06-07T09:18:29.750Z,53.02
2019-06-07T09:19:45.539Z,53.25
2019-06-07T09:21:47.591Z,53.21
2019-06-07T09:23:49.641Z,54.25
2019-06-07T09:26:02.560Z,54.28
2019-06-07T09:28:00.578Z,54.18
2019-06-07T09:30:03.160Z,53.48
2019-06-07T09:32:14.864Z,53.46
2019-06-07T09:34:13.948Z,54.23
2019-06-07T09:36:14.079Z,53.38
2019-06-07T09:38:25.487Z,53.50
2019-06-07T09:40:27.878Z,53.92
2019-06-07T09:42:29.897Z,53.60
2019-06-07T09:44:31.950Z,53.76
2019-06-07T09:46:33.882Z,54.39
2019-06-07T09:50:39.894Z,54.63
2019-06-07T09:52:58.085Z,53.72
2019-06-07T09:56:51.068Z,54.85
2019-06-07T09:58:54.212Z,53.92
2019-06-07T10:00:59.279Z,54.39
2019-06-07T10:03:13.709Z,54.96
2019-06-07T10:05:08.207Z,54.72
2019-06-07T10:07:27.155Z,55.47
2019-06-07T10:11:17.546Z,55.15
2019-06-07T10:13:19.609Z,54.72
2019-06-07T10:15:21.622Z,54.54
2019-06-07T10:17:23.601Z,54.63
2019-06-07T10:19:25.589Z,54.47
2019-06-07T10:21:27.587Z,53.90
2019-06-07T10:23:29.615Z,54.14
2019-06-07T10:25:31.738Z,54.32
2019-06-07T10:27:33.723Z,54.60
2019-06-07T10:29:35.833Z,54.06
2019-06-07T10:31:37.882Z,54.20
2019-06-07T10:33:40.089Z,54.80
2019-06-07T10:35:42.099Z,54.92
2019-06-07T10:37:44.113Z,54.36
2019-06-07T10:39:49.181Z,53.75
2019-06-07T10:41:50.128Z,53.97
2019-06-07T10:43:52.140Z,54.74
2019-06-07T10:45:54.246Z,54.03
2019-06-07T10:47:56.347Z,53.79
2019-06-07T10:49:58.349Z,53.52
2019-06-07T10:52:03.330Z,52.93
2019-06-07T10:54:10.785Z,53.59
2019-06-07T10:56:09.061Z,52.96
2019-06-07T10:58:13.254Z,52.64
2019-06-07T11:00:17.221Z,52.58
2019-06-07T11:02:19.247Z,52.12
2019-06-07T11:04:21.301Z,51.56
2019-06-07T11:06:23.388Z,51.33
2019-06-07T11:08:25.441Z,52.36
2019-06-07T11:10:27.409Z,51.43
2019-06-07T11:12:30.657Z,49.78
2019-06-07T11:14:32.657Z,49.39
2019-06-07T11:16:34.657Z,49.40
2019-06-07T11:18:36.678Z,48.47
2019-06-07T11:20:38.700Z,47.56
2019-06-07T11:22:40.703Z,47.95
2019-06-07T11:24:42.806Z,48.52
2019-06-07T11:26:44.853Z,48.11
2019-06-07T11:28:46.902Z,47.05
2019-06-07T11:30:48.978Z,46.89
2019-06-07T11:32:51.184Z,47.19
2019-06-07T11:34:53.507Z,46.91
2019-06-07T11:36:55.651Z,46.29
2019-06-07T11:38:58.000Z,46.63
2019-06-07T11:41:00.024Z,45.80
2019-06-07T11:43:02.412Z,46.00
2019-06-07T11:45:05.724Z,46.05
2019-06-07T11:47:08.256Z,45.71
2019-06-07T11:49:10.863Z,45.41
2019-06-07T11:51:14.908Z,45.06
2019-06-07T11:53:17.192Z,44.95
2019-06-07T11:55:19.306Z,44.47
2019-06-07T11:57:21.338Z,45.85
2019-06-07T11:59:23.335Z,45.54
2019-06-07T12:01:25.342Z,45.60
2019-06-07T12:03:27.345Z,46.35
2019-06-07T12:05:29.547Z,45.28
2019-06-07T12:07:31.607Z,44.54
2019-06-07T12:09:33.623Z,44.02
2019-06-07T12:11:35.901Z,44.59
2019-06-07T12:13:37.940Z,44.44
2019-06-07T12:15:39.936Z,44.08
2019-06-07T12:17:41.965Z,44.45
2019-06-07T12:19:44.097Z,44.76
2019-06-07T12:21:46.128Z,44.76
2019-06-07T12:23:48.260Z,44.96
2019-06-07T12:25:51.364Z,44.95
2019-06-07T12:27:53.646Z,44.99
2019-06-07T12:29:55.637Z,44.44
2019-06-07T12:31:57.676Z,44.72
2019-06-07T12:33:59.732Z,45.07
2019-06-07T12:36:02.438Z,45.35
2019-06-07T12:38:04.605Z,44.69
2019-06-07T12:40:08.475Z,45.10
2019-06-07T12:42:12.412Z,44.85
2019-06-07T12:44:16.569Z,44.95
2019-06-07T12:46:26.366Z,44.61
2019-06-07T12:48:26.136Z,45.79
2019-06-07T12:50:41.869Z,45.76
2019-06-07T12:52:32.292Z,45.32
2019-06-07T12:54:35.852Z,45.09
2019-06-07T12:56:37.857Z,43.42
2019-06-07T12:58:40.093Z,44.11
2019-06-07T13:00:42.129Z,44.11
2019-06-07T13:02:44.148Z,44.65
2019-06-07T13:04:46.238Z,44.83
2019-06-07T13:06:48.259Z,45.41
2019-06-07T13:08:50.291Z,44.77
2019-06-07T13:10:52.374Z,46.72
2019-06-07T13:12:54.484Z,45.39
2019-06-07T13:14:56.519Z,45.70
2019-06-07T13:16:58.775Z,45.83
2019-06-07T13:19:02.255Z,46.22
2019-06-07T13:21:04.304Z,46.42
2019-06-07T13:23:06.353Z,46.84
2019-06-07T13:25:08.790Z,46.81
2019-06-07T13:27:11.906Z,47.36
2019-06-07T13:29:14.056Z,48.01
2019-06-07T13:31:16.511Z,48.26
2019-06-07T13:33:21.412Z,48.55
2019-06-07T13:35:23.823Z,48.74
2019-06-07T13:37:27.723Z,48.97
2019-06-07T13:39:30.007Z,49.07
2019-06-07T13:41:42.501Z,49.23
2019-06-07T13:43:37.886Z,49.40
2019-06-07T13:45:40.225Z,50.16
2019-06-07T13:47:42.264Z,50.85
2019-06-07T13:49:44.322Z,49.98
2019-06-07T13:51:46.477Z,50.41
2019-06-07T13:53:48.538Z,51.75
2019-06-07T13:55:50.965Z,52.15
2019-06-07T13:57:52.525Z,53.39
2019-06-07T13:59:54.468Z,55.79
2019-06-07T14:01:56.502Z,59.46
2019-06-07T14:03:58.680Z,60.09
2019-06-07T14:06:00.828Z,59.89
2019-06-07T14:08:03.206Z,60.46
2019-06-07T14:10:05.539Z,61.76
2019-06-07T14:12:07.793Z,62.08
2019-06-07T14:14:09.846Z,62.65
2019-06-07T14:16:13.456Z,63.14
2019-06-07T14:18:15.560Z,63.42
2019-06-07T14:20:17.807Z,63.08
2019-06-07T14:22:20.543Z,62.23
2019-06-07T14:24:23.009Z,64.38
2019-06-07T14:26:25.251Z,63.10
2019-06-07T14:28:30.821Z,61.76
2019-06-07T14:30:32.675Z,61.30
2019-06-07T14:32:35.220Z,60.39
2019-06-07T14:34:37.374Z,59.62
2019-06-07T14:36:40.530Z,61.58
2019-06-07T14:38:42.746Z,63.31
2019-06-07T14:43:15.406Z,62.94
2019-06-07T14:45:17.857Z,64.83
2019-06-07T14:47:19.692Z,65.84
2019-06-07T14:49:21.834Z,67.32
2019-06-07T14:51:24.244Z,66.36
2019-06-07T14:53:26.653Z,65.51
2019-06-07T14:55:29.002Z,65.26
2019-06-07T14:57:31.120Z,65.54
2019-06-07T14:59:34.896Z,66.94
2019-06-07T15:01:36.990Z,67.32
2019-06-07T15:03:39.305Z,68.37
2019-06-07T15:05:41.385Z,67.54
2019-06-07T15:07:43.417Z,67.29
2019-06-07T15:09:45.710Z,67.89
2019-06-07T15:11:47.765Z,69.10
2019-06-07T15:13:49.775Z,70.38
2019-06-07T15:15:51.845Z,71.90
2019-06-07T15:17:53.923Z,72.71
2019-06-07T15:19:55.979Z,74.69
2019-06-07T15:21:58.015Z,72.62
2019-06-07T15:24:00.221Z,73.45
2019-06-07T15:26:02.314Z,73.72
2019-06-07T15:28:04.360Z,73.77
2019-06-07T15:30:10.264Z,73.07
2019-06-07T15:32:10.953Z,72.35
2019-06-07T15:34:12.973Z,71.98
2019-06-07T15:36:15.175Z,72.57
2019-06-07T15:38:17.170Z,74.76
2019-06-07T15:40:19.761Z,73.46
2019-06-07T15:42:22.075Z,72.84
2019-06-07T15:44:24.083Z,72.07
2019-06-07T15:46:26.523Z,71.47
2019-06-07T15:48:29.722Z,71.81
2019-06-07T15:50:32.365Z,72.15
2019-06-07T15:52:35.824Z,69.84
2019-06-07T15:54:38.491Z,72.10
2019-06-07T15:56:41.411Z,72.45
2019-06-07T15:58:43.864Z,71.57
2019-06-07T16:00:49.754Z,72.51
2019-06-07T16:02:53.095Z,73.00
2019-06-07T16:04:55.510Z,74.78
2019-06-07T16:06:58.004Z,74.20
2019-06-07T16:09:00.054Z,72.24
2019-06-07T16:11:04.371Z,74.16
2019-06-07T16:13:06.332Z,71.77
2019-06-07T16:15:09.133Z,72.11
2019-06-07T16:17:11.409Z,71.33
2019-06-07T16:19:14.088Z,72.45
2019-06-07T16:21:16.608Z,70.58
2019-06-07T16:23:18.868Z,69.77
2019-06-07T16:25:21.278Z,70.82
2019-06-07T16:27:23.582Z,72.26
2019-06-07T16:29:27.300Z,71.75
2019-06-07T16:31:29.911Z,70.91
2019-06-07T16:33:32.316Z,72.10
2019-06-07T16:35:36.939Z,70.77
2019-06-07T16:37:40.666Z,71.02
2019-06-07T16:39:44.755Z,71.84
2019-06-07T16:41:48.846Z,71.96
2019-06-07T16:43:51.474Z,71.34
2019-06-07T16:45:53.575Z,71.68
2019-06-07T16:47:55.620Z,73.48
2019-06-07T16:49:57.787Z,70.33
2019-06-07T16:51:59.923Z,71.24
2019-06-07T16:54:02.237Z,71.46
2019-06-07T16:56:05.048Z,73.63
2019-06-07T16:58:07.111Z,72.20
2019-06-07T17:00:10.005Z,72.19
2019-06-07T17:02:12.086Z,71.35
2019-06-07T17:04:14.292Z,71.54
2019-06-07T17:06:16.474Z,70.96
2019-06-07T17:08:18.623Z,71.17
2019-06-07T17:10:20.950Z,71.12
2019-06-07T17:12:22.975Z,70.38
2019-06-07T17:14:24.987Z,70.80
2019-06-07T17:16:27.053Z,70.55
2019-06-07T17:18:29.168Z,68.62
2019-06-07T17:20:31.223Z,68.00
2019-06-07T17:22:33.343Z,67.37
2019-06-07T17:24:35.391Z,68.29
2019-06-07T17:26:37.451Z,69.14
2019-06-07T17:28:39.730Z,68.85
2019-06-07T17:30:41.873Z,67.85
2019-06-07T17:32:53.820Z,67.74
2019-06-07T17:34:50.645Z,67.60
2019-06-07T17:36:52.723Z,68.49
2019-06-07T17:38:54.770Z,67.02
2019-06-07T17:40:56.827Z,66.41
2019-06-07T17:42:59.099Z,67.33
2019-06-07T17:45:01.318Z,67.66
2019-06-07T17:47:03.347Z,68.03
2019-06-07T17:49:05.493Z,67.32
2019-06-07T17:51:07.578Z,65.46
2019-06-07T17:53:09.613Z,65.61
2019-06-07T17:55:11.804Z,64.97
2019-06-07T17:57:13.912Z,65.77
2019-06-07T17:59:15.995Z,65.67
2019-06-07T18:01:18.019Z,66.71
2019-06-07T18:03:21.218Z,67.21
2019-06-07T18:05:23.341Z,66.59
2019-06-07T18:07:26.011Z,67.70
2019-06-07T18:09:28.434Z,65.23
2019-06-07T18:11:30.146Z,65.99
2019-06-07T18:13:32.193Z,65.01
2019-06-07T18:15:41.719Z,65.51
2019-06-07T18:17:44.937Z,64.57
2019-06-07T18:19:47.086Z,64.25
2019-06-07T18:21:50.108Z,64.50
2019-06-07T18:23:54.725Z,63.95
2019-06-07T18:25:56.878Z,64.21
2019-06-07T18:27:59.034Z,64.62
2019-06-07T18:30:10.867Z,63.72
2019-06-07T18:32:06.232Z,63.55
2019-06-07T18:34:08.293Z,63.68
2019-06-07T18:36:10.371Z,63.17
2019-06-07T18:38:12.429Z,63.58
2019-06-07T18:40:14.593Z,64.25
2019-06-07T18:42:16.766Z,64.60
2019-06-07T18:44:21.856Z,64.46
2019-06-07T18:46:23.015Z,64.91
2019-06-07T18:48:25.149Z,65.34
2019-06-07T18:50:27.340Z,64.87
2019-06-07T18:52:32.124Z,65.14
2019-06-07T18:54:34.455Z,65.11
2019-06-07T18:56:36.134Z,65.85
2019-06-07T18:58:38.126Z,65.17
2019-06-07T19:00:40.145Z,66.13
2019-06-07T19:02:42.474Z,65.86
2019-06-07T19:04:44.590Z,65.75
2019-06-07T19:06:46.668Z,66.06
2019-06-07T19:08:51.823Z,65.69
2019-06-07T19:10:52.707Z,65.59
2019-06-07T19:12:55.288Z,64.94
2019-06-07T19:14:57.631Z,65.43
2019-06-07T19:16:59.822Z,65.76
2019-06-07T19:19:01.824Z,65.59
2019-06-07T19:21:03.875Z,65.51
2019-06-07T19:23:05.890Z,65.60
2019-06-07T19:25:08.319Z,65.83
2019-06-07T19:27:10.435Z,65.51
2019-06-07T19:29:12.505Z,65.76
2019-06-07T19:31:14.576Z,65.67
2019-06-07T19:33:16.681Z,65.05
2019-06-07T19:35:18.889Z,65.50
2019-06-07T19:37:20.966Z,65.34
2019-06-07T19:39:23.132Z,65.39
2019-06-07T19:41:25.193Z,65.23
2019-06-07T19:43:27.475Z,64.85
2019-06-07T19:45:31.536Z,64.86
2019-06-07T19:47:33.648Z,64.87
2019-06-07T19:49:35.748Z,65.01
2019-06-07T19:51:37.780Z,65.42
2019-06-07T19:53:39.894Z,65.45
2019-06-07T19:55:41.925Z,65.59
2019-06-07T19:57:43.983Z,65.80
2019-06-07T19:59:46.084Z,66.01
2019-06-07T20:01:48.161Z,65.13
2019-06-07T20:03:50.223Z,66.40
2019-06-07T20:05:52.287Z,66.40
2019-06-07T20:07:54.538Z,65.93
2019-06-07T20:09:56.634Z,65.66
2019-06-07T20:11:58.652Z,65.90
2019-06-07T20:14:00.854Z,65.62
2019-06-07T20:16:03.074Z,65.85
2019-06-07T20:18:05.548Z,65.92
2019-06-07T20:20:08.930Z,65.73
2019-06-07T20:22:11.088Z,65.41
2019-06-07T20:24:26.386Z,65.65
2019-06-07T20:26:17.211Z,65.57
2019-06-07T20:28:19.283Z,65.30
2019-06-07T20:30:21.711Z,65.44
2019-06-07T20:32:23.307Z,65.11
2019-06-07T20:34:25.400Z,65.53
2019-06-07T20:36:27.511Z,65.61
2019-06-07T20:38:29.595Z,65.79
2019-06-07T20:40:31.641Z,65.77
2019-06-07T20:42:33.740Z,65.96
2019-06-07T20:44:35.841Z,65.90
2019-06-07T20:46:38.111Z,66.49
2019-06-07T20:48:40.244Z,66.32
2019-06-07T20:50:42.321Z,66.28
2019-06-07T20:52:44.363Z,66.24
2019-06-07T20:54:46.447Z,66.48
2019-06-07T20:56:48.545Z,66.21
2019-06-07T20:58:50.663Z,66.44
2019-06-07T21:00:52.748Z,66.68
2019-06-07T21:02:54.813Z,66.94
2019-06-07T21:04:56.899Z,67.01
2019-06-07T21:06:59.228Z,66.97
2019-06-07T21:09:01.561Z,66.80
2019-06-07T21:11:05.813Z,66.70
2019-06-07T21:13:08.211Z,66.76
2019-06-07T21:15:14.054Z,66.62
2019-06-07T21:17:13.940Z,66.91
2019-06-07T21:19:16.168Z,66.44
2019-06-07T21:21:18.228Z,66.78
2019-06-07T21:23:20.351Z,66.60
2019-06-07T21:25:22.338Z,66.75
2019-06-07T21:27:24.467Z,66.39
2019-06-07T21:29:26.491Z,66.46
2019-06-07T21:31:28.522Z,66.06
2019-06-07T21:33:30.795Z,66.13
2019-06-07T21:35:32.907Z,66.28
2019-06-07T21:37:35.296Z,66.24
2019-06-07T21:39:37.424Z,65.91
2019-06-07T21:41:39.510Z,65.39
2019-06-07T21:43:41.605Z,65.41
2019-06-07T21:45:44.457Z,65.58
2019-06-07T21:47:46.930Z,65.11
2019-06-07T21:49:48.634Z,64.75
2019-06-07T21:51:50.738Z,64.45
2019-06-07T21:53:52.844Z,65.18
2019-06-07T21:55:54.900Z,65.52
2019-06-07T21:57:56.950Z,64.94
2019-06-07T21:59:59.063Z,65.11
2019-06-07T22:02:01.115Z,66.92
2019-06-07T22:04:03.561Z,67.23
2019-06-07T22:06:07.509Z,68.40
2019-06-07T22:08:10.396Z,71.29
2019-06-07T22:10:14.480Z,72.33
2019-06-07T22:12:16.607Z,73.59
2019-06-07T22:14:19.435Z,73.38
2019-06-07T22:16:29.030Z,73.00
2019-06-07T22:18:25.610Z,73.83
2019-06-07T22:20:27.651Z,73.13
2019-06-07T22:22:29.670Z,72.47
2019-06-07T22:24:31.716Z,71.74
2019-06-07T22:26:33.769Z,71.67
2019-06-07T22:28:35.774Z,71.65
2019-06-07T22:30:37.802Z,71.64
2019-06-07T22:32:39.823Z,70.80
2019-06-07T22:34:41.956Z,71.17
2019-06-07T22:36:43.990Z,71.00
2019-06-07T22:38:46.043Z,71.32
2019-06-07T22:40:48.053Z,71.54
2019-06-07T22:42:50.123Z,71.45
2019-06-07T22:44:52.337Z,71.27
2019-06-07T22:46:54.416Z,71.70
2019-06-07T22:48:56.676Z,71.20
2019-06-07T22:51:00.063Z,71.59
2019-06-07T22:53:02.095Z,71.04
2019-06-07T22:55:04.477Z,71.01
2019-06-07T22:57:16.675Z,71.29
2019-06-07T22:59:20.505Z,71.33
2019-06-07T23:01:22.843Z,72.60
2019-06-07T23:03:24.877Z,72.67
2019-06-07T23:05:26.924Z,73.07
2019-06-07T23:07:28.962Z,72.65
2019-06-07T23:09:30.982Z,73.08
2019-06-07T23:11:33.119Z,72.83
2019-06-07T23:13:35.132Z,72.82
2019-06-07T23:15:37.768Z,72.40
2019-06-07T23:17:39.779Z,72.28
2019-06-07T23:19:41.864Z,71.51
2019-06-07T23:21:43.936Z,71.56
2019-06-07T23:23:46.073Z,72.35
2019-06-07T23:25:48.129Z,72.32
2019-06-07T23:27:50.161Z,72.15
2019-06-07T23:29:52.188Z,71.93
2019-06-07T23:31:54.227Z,71.91
2019-06-07T23:33:56.235Z,71.64
2019-06-07T23:35:58.337Z,72.38
2019-06-07T23:38:00.440Z,72.72
2019-06-07T23:41:13.287Z,75.59
2019-06-07T23:43:15.518Z,77.17
2019-06-07T23:45:17.651Z,76.79
2019-06-07T23:47:20.650Z,78.58
2019-06-07T23:49:23.735Z,79.47
2019-06-07T23:51:25.745Z,79.96
2019-06-07T23:53:27.923Z,79.81
2019-06-07T23:55:29.925Z,81.11
2019-06-07T23:57:31.965Z,80.99
2019-06-07T23:59:33.974Z,82.04
